sensor_id;sensor_type;location;lat;lon;timestamp;pressure;altitude;pressure_sealevel;temperature;humidity
45050;BME280;61798;48.048;-1.928;2023-09-19T00:00:18;100814.19;;;13.45;100.00
45050;BME280;61798;48.048;-1.928;2023-09-19T00:02:28;100815.00;;;13.25;100.00
45050;BME280;61798;48.048;-1.928;2023-09-19T00:04:36;100788.50;;;13.02;100.00
45050;BME280;61798;48.048;-1.928;2023-09-19T00:06:46;100790.59;;;13.13;100.00
45050;BME280;61798;48.048;-1.928;2023-09-19T00:08:54;100809.38;;;13.54;100.00
45050;BME280;61798;48.048;-1.928;2023-09-19T00:11:01;100805.44;;;13.50;100.00
45050;BME280;61798;48.048;-1.928;2023-09-19T00:13:13;100786.63;;;13.57;100.00
45050;BME280;61798;48.048;-1.928;2023-09-19T00:15:22;100808.16;;;13.50;100.00
45050;BME280;61798;48.048;-1.928;2023-09-19T00:17:29;100797.38;;;13.57;100.00
45050;BME280;61798;48.048;-1.928;2023-09-19T00:19:39;100787.88;;;13.34;100.00
45050;BME280;61798;48.048;-1.928;2023-09-19T00:21:48;100799.03;;;13.58;100.00
45050;BME280;61798;48.048;-1.928;2023-09-19T00:23:55;100796.38;;;13.37;100.00
45050;BME280;61798;48.048;-1.928;2023-09-19T00:26:01;100805.44;;;13.50;100.00
45050;BME280;61798;48.048;-1.928;2023-09-19T00:28:08;100795.13;;;13.33;100.00
45050;BME280;61798;48.048;-1.928;2023-09-19T00:30:17;100803.22;;;13.33;100.00
45050;BME280;61798;48.048;-1.928;2023-09-19T00:32:26;100802.56;;;13.31;100.00
45050;BME280;61798;48.048;-1.928;2023-09-19T00:34:56;100791.00;;;13.37;100.00
45050;BME280;61798;48.048;-1.928;2023-09-19T00:37:03;100799.88;;;13.24;100.00
45050;BME280;61798;48.048;-1.928;2023-09-19T00:39:11;100789.72;;;13.26;100.00
45050;BME280;61798;48.048;-1.928;2023-09-19T00:41:17;100779.81;;;12.86;100.00
45050;BME280;61798;48.048;-1.928;2023-09-19T00:43:23;100796.34;;;13.03;100.00
45050;BME280;61798;48.048;-1.928;2023-09-19T00:45:29;100778.75;;;12.87;100.00
45050;BME280;61798;48.048;-1.928;2023-09-19T00:47:41;100800.47;;;12.92;100.00
45050;BME280;61798;48.048;-1.928;2023-09-19T00:49:49;100806.69;;;12.93;100.00
45050;BME280;61798;48.048;-1.928;2023-09-19T00:51:55;100808.97;;;12.89;100.00
45050;BME280;61798;48.048;-1.928;2023-09-19T00:54:01;100801.94;;;13.15;100.00
45050;BME280;61798;48.048;-1.928;2023-09-19T00:56:09;100806.31;;;13.16;100.00
45050;BME280;61798;48.048;-1.928;2023-09-19T00:58:18;100802.16;;;12.93;100.00
45050;BME280;61798;48.048;-1.928;2023-09-19T01:00:25;100769.63;;;12.74;100.00
45050;BME280;61798;48.048;-1.928;2023-09-19T01:02:34;100799.22;;;12.88;100.00
45050;BME280;61798;48.048;-1.928;2023-09-19T01:04:41;100789.72;;;12.99;100.00
45050;BME280;61798;48.048;-1.928;2023-09-19T01:06:49;100784.75;;;12.89;100.00
45050;BME280;61798;48.048;-1.928;2023-09-19T01:09:00;100803.81;;;13.01;100.00
45050;BME280;61798;48.048;-1.928;2023-09-19T01:11:21;100808.56;;;13.06;100.00
45050;BME280;61798;48.048;-1.928;2023-09-19T01:13:58;100816.66;;;13.26;100.00
45050;BME280;61798;48.048;-1.928;2023-09-19T01:29:46;100815.44;;;12.39;100.00
45050;BME280;61798;48.048;-1.928;2023-09-19T01:31:53;100823.13;;;12.42;100.00
45050;BME280;61798;48.048;-1.928;2023-09-19T01:34:01;100816.22;;;12.25;100.00
45050;BME280;61798;48.048;-1.928;2023-09-19T01:36:07;100815.22;;;12.33;100.00
45050;BME280;61798;48.048;-1.928;2023-09-19T01:38:16;100806.59;;;12.45;100.00
45050;BME280;61798;48.048;-1.928;2023-09-19T01:40:24;100798.50;;;12.02;100.00
45050;BME280;61798;48.048;-1.928;2023-09-19T01:45:15;100795.75;;;12.24;100.00
45050;BME280;61798;48.048;-1.928;2023-09-19T01:47:50;100825.75;;;12.35;100.00
45050;BME280;61798;48.048;-1.928;2023-09-19T01:50:17;100802.16;;;12.23;100.00
45050;BME280;61798;48.048;-1.928;2023-09-19T01:52:30;100803.09;;;12.09;100.00
45050;BME280;61798;48.048;-1.928;2023-09-19T01:54:49;100824.13;;;12.34;100.00
45050;BME280;61798;48.048;-1.928;2023-09-19T01:57:10;100810.69;;;12.41;100.00
45050;BME280;61798;48.048;-1.928;2023-09-19T01:59:26;100831.25;;;12.69;100.00
45050;BME280;61798;48.048;-1.928;2023-09-19T02:01:37;100820.28;;;12.64;100.00
45050;BME280;61798;48.048;-1.928;2023-09-19T02:03:47;100795.81;;;12.45;100.00
45050;BME280;61798;48.048;-1.928;2023-09-19T02:05:55;100814.84;;;12.50;100.00
45050;BME280;61798;48.048;-1.928;2023-09-19T02:08:01;100808.69;;;12.56;100.00
45050;BME280;61798;48.048;-1.928;2023-09-19T02:10:11;100803.34;;;12.77;100.00
45050;BME280;61798;48.048;-1.928;2023-09-19T02:12:19;100805.34;;;12.47;100.00
45050;BME280;61798;48.048;-1.928;2023-09-19T02:14:26;100819.69;;;12.82;100.00
45050;BME280;61798;48.048;-1.928;2023-09-19T02:16:34;100794.59;;;12.54;100.00
45050;BME280;61798;48.048;-1.928;2023-09-19T02:18:42;100789.69;;;12.65;100.00
45050;BME280;61798;48.048;-1.928;2023-09-19T02:20:48;100807.91;;;12.69;100.00
45050;BME280;61798;48.048;-1.928;2023-09-19T02:22:55;100780.50;;;12.39;100.00
45050;BME280;61798;48.048;-1.928;2023-09-19T02:25:02;100816.56;;;12.65;100.00
45050;BME280;61798;48.048;-1.928;2023-09-19T02:27:12;100781.13;;;12.41;100.00
45050;BME280;61798;48.048;-1.928;2023-09-19T02:29:21;100815.13;;;12.69;100.00
45050;BME280;61798;48.048;-1.928;2023-09-19T02:31:29;100803.34;;;12.77;100.00
45050;BME280;61798;48.048;-1.928;2023-09-19T02:33:36;100800.69;;;12.84;100.00
45050;BME280;61798;48.048;-1.928;2023-09-19T02:35:44;100784.72;;;12.62;100.00
45050;BME280;61798;48.048;-1.928;2023-09-19T02:37:52;100783.41;;;12.44;100.00
45050;BME280;61798;48.048;-1.928;2023-09-19T02:39:59;100790.88;;;12.48;100.00
45050;BME280;61798;48.048;-1.928;2023-09-19T02:42:06;100775.63;;;12.69;100.00
45050;BME280;61798;48.048;-1.928;2023-09-19T02:44:14;100795.72;;;12.81;100.00
45050;BME280;61798;48.048;-1.928;2023-09-19T02:46:21;100761.97;;;12.71;100.00
45050;BME280;61798;48.048;-1.928;2023-09-19T02:48:27;100773.25;;;12.32;100.00
45050;BME280;61798;48.048;-1.928;2023-09-19T02:50:36;100781.28;;;12.25;100.00
45050;BME280;61798;48.048;-1.928;2023-09-19T02:52:44;100784.06;;;12.10;100.00
45050;BME280;61798;48.048;-1.928;2023-09-19T02:54:52;100783.22;;;12.03;100.00
45050;BME280;61798;48.048;-1.928;2023-09-19T02:56:59;100772.63;;;11.94;100.00
45050;BME280;61798;48.048;-1.928;2023-09-19T02:59:06;100764.53;;;11.81;100.00
45050;BME280;61798;48.048;-1.928;2023-09-19T03:01:14;100788.13;;;11.92;100.00
45050;BME280;61798;48.048;-1.928;2023-09-19T03:03:21;100783.06;;;12.11;100.00
45050;BME280;61798;48.048;-1.928;2023-09-19T03:05:28;100795.81;;;12.02;100.00
45050;BME280;61798;48.048;-1.928;2023-09-19T03:07:39;100797.22;;;11.91;100.00
45050;BME280;61798;48.048;-1.928;2023-09-19T03:09:47;100778.84;;;11.95;100.00
45050;BME280;61798;48.048;-1.928;2023-09-19T03:11:54;100772.13;;;12.13;100.00
45050;BME280;61798;48.048;-1.928;2023-09-19T03:14:01;100794.94;;;12.31;100.00
45050;BME280;61798;48.048;-1.928;2023-09-19T03:16:08;100784.63;;;12.34;100.00
45050;BME280;61798;48.048;-1.928;2023-09-19T03:18:15;100787.59;;;12.53;100.00
45050;BME280;61798;48.048;-1.928;2023-09-19T03:20:23;100788.66;;;12.73;100.00
45050;BME280;61798;48.048;-1.928;2023-09-19T03:22:30;100795.25;;;12.56;100.00
45050;BME280;61798;48.048;-1.928;2023-09-19T03:24:38;100799.00;;;12.69;100.00
45050;BME280;61798;48.048;-1.928;2023-09-19T03:26:45;100784.13;;;12.73;100.00
45050;BME280;61798;48.048;-1.928;2023-09-19T03:28:53;100791.81;;;12.97;100.00
45050;BME280;61798;48.048;-1.928;2023-09-19T03:31:04;100793.66;;;12.96;100.00
45050;BME280;61798;48.048;-1.928;2023-09-19T03:33:12;100791.59;;;12.85;100.00
45050;BME280;61798;48.048;-1.928;2023-09-19T03:35:19;100790.72;;;12.64;100.00
45050;BME280;61798;48.048;-1.928;2023-09-19T03:37:26;100782.25;;;12.87;100.00
45050;BME280;61798;48.048;-1.928;2023-09-19T03:39:32;100788.06;;;12.98;100.00
45050;BME280;61798;48.048;-1.928;2023-09-19T03:41:39;100793.06;;;13.08;100.00
45050;BME280;61798;48.048;-1.928;2023-09-19T03:43:46;100774.00;;;12.89;100.00
45050;BME280;61798;48.048;-1.928;2023-09-19T03:45:54;100788.06;;;12.98;100.00
45050;BME280;61798;48.048;-1.928;2023-09-19T03:48:01;100782.72;;;13.05;100.00
45050;BME280;61798;48.048;-1.928;2023-09-19T03:50:09;100776.69;;;13.03;100.00
45050;BME280;61798;48.048;-1.928;2023-09-19T03:52:18;100765.50;;;12.99;100.00
45050;BME280;61798;48.048;-1.928;2023-09-19T03:54:24;100782.72;;;13.05;100.00
45050;BME280;61798;48.048;-1.928;2023-09-19T03:56:31;100774.19;;;12.94;100.00
45050;BME280;61798;48.048;-1.928;2023-09-19T03:58:38;100769.03;;;12.99;100.00
45050;BME280;61798;48.048;-1.928;2023-09-19T04:00:47;100774.00;;;13.03;100.00
45050;BME280;61798;48.048;-1.928;2023-09-19T04:02:56;100757.66;;;12.90;100.00
45050;BME280;61798;48.048;-1.928;2023-09-19T04:05:03;100734.25;;;12.71;100.00
45050;BME280;61798;48.048;-1.928;2023-09-19T04:07:10;100772.13;;;12.83;100.00
45050;BME280;61798;48.048;-1.928;2023-09-19T04:09:17;100740.84;;;12.54;100.00
45050;BME280;61798;48.048;-1.928;2023-09-19T04:11:24;100770.44;;;12.68;100.00
45050;BME280;61798;48.048;-1.928;2023-09-19T04:13:34;100759.47;;;12.63;100.00
45050;BME280;61798;48.048;-1.928;2023-09-19T04:15:41;100748.97;;;12.82;100.00
45050;BME280;61798;48.048;-1.928;2023-09-19T04:17:49;100773.16;;;13.02;100.00
45050;BME280;61798;48.048;-1.928;2023-09-19T04:19:55;100749.38;;;12.92;100.00
45050;BME280;61798;48.048;-1.928;2023-09-19T04:22:01;100731.19;;;12.74;100.00
45050;BME280;61798;48.048;-1.928;2023-09-19T04:24:07;100728.50;;;12.74;100.00
45050;BME280;61798;48.048;-1.928;2023-09-19T04:26:13;100736.13;;;12.84;100.00
45050;BME280;61798;48.048;-1.928;2023-09-19T04:28:23;100742.97;;;12.93;100.00
45050;BME280;61798;48.048;-1.928;2023-09-19T04:30:31;100740.69;;;12.90;100.00
45050;BME280;61798;48.048;-1.928;2023-09-19T04:32:38;100730.94;;;12.75;100.00
45050;BME280;61798;48.048;-1.928;2023-09-19T04:34:45;100750.22;;;12.86;100.00
45050;BME280;61798;48.048;-1.928;2023-09-19T04:36:51;100745.03;;;13.05;100.00
45050;BME280;61798;48.048;-1.928;2023-09-19T04:38:59;100756.63;;;12.92;100.00
45050;BME280;61798;48.048;-1.928;2023-09-19T04:41:06;100745.03;;;12.84;100.00
45050;BME280;61798;48.048;-1.928;2023-09-19T04:43:14;100753.72;;;12.86;100.00
45050;BME280;61798;48.048;-1.928;2023-09-19T04:45:25;100763.22;;;12.75;100.00
45050;BME280;61798;48.048;-1.928;2023-09-19T04:47:39;100755.16;;;12.68;100.00
45050;BME280;61798;48.048;-1.928;2023-09-19T04:49:46;100749.81;;;12.89;100.00
45050;BME280;61798;48.048;-1.928;2023-09-19T04:51:54;100739.44;;;12.79;100.00
45050;BME280;61798;48.048;-1.928;2023-09-19T04:54:02;100745.84;;;12.98;100.00
45050;BME280;61798;48.048;-1.928;2023-09-19T04:56:09;100747.53;;;12.99;100.00
45050;BME280;61798;48.048;-1.928;2023-09-19T04:58:20;100745.88;;;13.12;100.00
45050;BME280;61798;48.048;-1.928;2023-09-19T05:00:42;100733.84;;;13.28;100.00
45050;BME280;61798;48.048;-1.928;2023-09-19T05:02:57;100747.72;;;13.18;100.00
45050;BME280;61798;48.048;-1.928;2023-09-19T05:05:16;100726.19;;;13.11;100.00
45050;BME280;61798;48.048;-1.928;2023-09-19T05:07:22;100747.50;;;13.06;100.00
45050;BME280;61798;48.048;-1.928;2023-09-19T05:09:29;100721.84;;;12.76;100.00
45050;BME280;61798;48.048;-1.928;2023-09-19T05:11:35;100710.88;;;12.57;100.00
45050;BME280;61798;48.048;-1.928;2023-09-19T05:13:45;100739.66;;;12.77;100.00
45050;BME280;61798;48.048;-1.928;2023-09-19T05:15:52;100719.09;;;12.42;100.00
45050;BME280;61798;48.048;-1.928;2023-09-19T05:18:00;100771.94;;;12.77;100.00
45050;BME280;61798;48.048;-1.928;2023-09-19T05:20:23;100767.34;;;12.78;100.00
45050;BME280;61798;48.048;-1.928;2023-09-19T05:22:36;100750.19;;;12.72;100.00
45050;BME280;61798;48.048;-1.928;2023-09-19T05:24:47;100742.72;;;12.74;100.00
45050;BME280;61798;48.048;-1.928;2023-09-19T05:26:55;100754.50;;;12.66;100.00
45050;BME280;61798;48.048;-1.928;2023-09-19T05:29:04;100726.41;;;12.69;100.00
45050;BME280;61798;48.048;-1.928;2023-09-19T05:31:12;100763.63;;;12.79;100.00
45050;BME280;61798;48.048;-1.928;2023-09-19T05:33:20;100757.66;;;12.84;100.00
45050;BME280;61798;48.048;-1.928;2023-09-19T05:35:27;100762.84;;;12.92;100.00
45050;BME280;61798;48.048;-1.928;2023-09-19T05:37:34;100774.00;;;12.96;100.00
45050;BME280;61798;48.048;-1.928;2023-09-19T05:39:40;100754.13;;;12.83;100.00
45050;BME280;61798;48.048;-1.928;2023-09-19T05:41:47;100760.13;;;12.85;100.00
45050;BME280;61798;48.048;-1.928;2023-09-19T05:43:54;100730.31;;;12.66;100.00
45050;BME280;61798;48.048;-1.928;2023-09-19T05:46:01;100764.66;;;12.78;100.00
45050;BME280;61798;48.048;-1.928;2023-09-19T05:48:12;100774.84;;;12.96;100.00
45050;BME280;61798;48.048;-1.928;2023-09-19T05:50:21;100762.63;;;12.94;100.00
45050;BME280;61798;48.048;-1.928;2023-09-19T05:52:28;100764.47;;;13.07;100.00
45050;BME280;61798;48.048;-1.928;2023-09-19T05:54:36;100741.94;;;13.08;100.00
45050;BME280;61798;48.048;-1.928;2023-09-19T05:56:45;100757.06;;;13.09;100.00
45050;BME280;61798;48.048;-1.928;2023-09-19T05:58:53;100752.91;;;13.13;100.00
45050;BME280;61798;48.048;-1.928;2023-09-19T06:01:00;100753.31;;;13.17;100.00
45050;BME280;61798;48.048;-1.928;2023-09-19T06:03:09;100747.94;;;13.24;100.00
45050;BME280;61798;48.048;-1.928;2023-09-19T06:05:16;100744.63;;;13.21;100.00
45050;BME280;61798;48.048;-1.928;2023-09-19T06:07:23;100748.34;;;13.20;100.00
45050;BME280;61798;48.048;-1.928;2023-09-19T06:09:33;100742.34;;;13.32;100.00
45050;BME280;61798;48.048;-1.928;2023-09-19T06:11:41;100749.56;;;13.31;100.00
45050;BME280;61798;48.048;-1.928;2023-09-19T06:13:47;100757.22;;;13.35;100.00
45050;BME280;61798;48.048;-1.928;2023-09-19T06:15:54;100756.81;;;13.38;100.00
45050;BME280;61798;48.048;-1.928;2023-09-19T06:18:00;100753.53;;;13.29;100.00
45050;BME280;61798;48.048;-1.928;2023-09-19T06:20:08;100760.34;;;13.31;100.00
45050;BME280;61798;48.048;-1.928;2023-09-19T06:22:20;100734.06;;;13.20;100.00
45050;BME280;61798;48.048;-1.928;2023-09-19T06:24:26;100762.84;;;13.19;100.00
45050;BME280;61798;48.048;-1.928;2023-09-19T06:26:31;100718.75;;;13.07;100.00
45050;BME280;61798;48.048;-1.928;2023-09-19T06:28:37;100736.34;;;13.23;100.00
45050;BME280;61798;48.048;-1.928;2023-09-19T06:30:43;100751.44;;;13.31;100.00
45050;BME280;61798;48.048;-1.928;2023-09-19T06:32:55;100750.19;;;13.27;100.00
45050;BME280;61798;48.048;-1.928;2023-09-19T06:35:01;100728.06;;;13.04;100.00
45050;BME280;61798;48.048;-1.928;2023-09-19T06:37:08;100740.28;;;13.20;100.00
45050;BME280;61798;48.048;-1.928;2023-09-19T06:39:14;100729.72;;;13.12;100.00
45050;BME280;61798;48.048;-1.928;2023-09-19T06:41:20;100766.13;;;13.35;100.00
45050;BME280;61798;48.048;-1.928;2023-09-19T06:43:34;100756.00;;;13.37;100.00
45050;BME280;61798;48.048;-1.928;2023-09-19T06:45:39;100747.69;;;13.46;100.00
45050;BME280;61798;48.048;-1.928;2023-09-19T06:47:46;100758.69;;;13.64;100.00
45050;BME280;61798;48.048;-1.928;2023-09-19T06:49:55;100759.28;;;13.60;100.00
45050;BME280;61798;48.048;-1.928;2023-09-19T06:52:01;100752.22;;;13.66;100.00
45050;BME280;61798;48.048;-1.928;2023-09-19T06:54:08;100759.91;;;13.69;100.00
45050;BME280;61798;48.048;-1.928;2023-09-19T06:56:15;100744.56;;;13.62;100.00
45050;BME280;61798;48.048;-1.928;2023-09-19T06:58:22;100735.69;;;13.69;100.00
45050;BME280;61798;48.048;-1.928;2023-09-19T07:00:29;100754.91;;;13.79;100.00
45050;BME280;61798;48.048;-1.928;2023-09-19T07:02:43;100742.28;;;13.73;100.00
45050;BME280;61798;48.048;-1.928;2023-09-19T07:04:51;100763.19;;;13.84;100.00
45050;BME280;61798;48.048;-1.928;2023-09-19T07:06:58;100759.84;;;13.82;100.00
45050;BME280;61798;48.048;-1.928;2023-09-19T07:09:06;100750.53;;;13.85;100.00
45050;BME280;61798;48.048;-1.928;2023-09-19T07:11:13;100760.28;;;13.79;100.00
45050;BME280;61798;48.048;-1.928;2023-09-19T07:13:23;100735.25;;;13.72;100.00
45050;BME280;61798;48.048;-1.928;2023-09-19T07:15:33;100753.22;;;13.92;100.00
45050;BME280;61798;48.048;-1.928;2023-09-19T07:17:58;100753.56;;;14.02;100.00
45050;BME280;61798;48.048;-1.928;2023-09-19T07:20:05;100731.84;;;13.90;100.00
45050;BME280;61798;48.048;-1.928;2023-09-19T07:22:15;100753.94;;;14.20;100.00
45050;BME280;61798;48.048;-1.928;2023-09-19T07:24:22;100745.53;;;14.35;100.00
45050;BME280;61798;48.048;-1.928;2023-09-19T07:26:29;100702.91;;;14.18;100.00
45050;BME280;61798;48.048;-1.928;2023-09-19T07:28:59;100746.72;;;14.46;100.00
45050;BME280;61798;48.048;-1.928;2023-09-19T07:31:08;100733.69;;;14.43;100.00
45050;BME280;61798;48.048;-1.928;2023-09-19T07:33:16;100743.72;;;14.61;100.00
45050;BME280;61798;48.048;-1.928;2023-09-19T07:35:23;100742.47;;;14.64;100.00
45050;BME280;61798;48.048;-1.928;2023-09-19T07:37:30;100748.25;;;14.67;100.00
45050;BME280;61798;48.048;-1.928;2023-09-19T07:39:40;100739.13;;;14.68;100.00
45050;BME280;61798;48.048;-1.928;2023-09-19T07:41:48;100741.56;;;14.77;100.00
45050;BME280;61798;48.048;-1.928;2023-09-19T07:43:56;100747.34;;;14.80;100.00
45050;BME280;61798;48.048;-1.928;2023-09-19T07:46:05;100743.19;;;14.78;100.00
45050;BME280;61798;48.048;-1.928;2023-09-19T07:48:14;100712.91;;;14.50;100.00
45050;BME280;61798;48.048;-1.928;2023-09-19T07:50:40;100752.13;;;14.78;100.00
45050;BME280;61798;48.048;-1.928;2023-09-19T07:53:01;100744.91;;;14.72;100.00
45050;BME280;61798;48.048;-1.928;2023-09-19T07:55:14;100732.09;;;14.67;100.00
45050;BME280;61798;48.048;-1.928;2023-09-19T07:57:27;100747.75;;;14.84;100.00
45050;BME280;61798;48.048;-1.928;2023-09-19T07:59:37;100740.25;;;14.86;100.00
45050;BME280;61798;48.048;-1.928;2023-09-19T08:01:45;100745.19;;;14.96;100.00
45050;BME280;61798;48.048;-1.928;2023-09-19T08:03:52;100721.13;;;14.95;100.00
45050;BME280;61798;48.048;-1.928;2023-09-19T08:06:00;100745.28;;;15.08;100.00
45050;BME280;61798;48.048;-1.928;2023-09-19T08:08:07;100737.97;;;15.16;100.00
45050;BME280;61798;48.048;-1.928;2023-09-19T08:10:15;100722.25;;;15.06;100.00
45050;BME280;61798;48.048;-1.928;2023-09-19T08:12:23;100737.13;;;15.15;100.00
45050;BME280;61798;48.048;-1.928;2023-09-19T08:14:30;100707.41;;;14.96;100.00
45050;BME280;61798;48.048;-1.928;2023-09-19T08:16:36;100742.91;;;15.19;100.00
45050;BME280;61798;48.048;-1.928;2023-09-19T08:18:42;100732.41;;;15.10;100.00
45050;BME280;61798;48.048;-1.928;2023-09-19T08:20:51;100709.41;;;15.01;100.00
45050;BME280;61798;48.048;-1.928;2023-09-19T08:22:58;100755.91;;;15.29;100.00
45050;BME280;61798;48.048;-1.928;2023-09-19T08:25:05;100721.78;;;15.16;100.00
45050;BME280;61798;48.048;-1.928;2023-09-19T08:27:14;100722.69;;;15.28;100.00
45050;BME280;61798;48.048;-1.928;2023-09-19T08:29:23;100722.69;;;15.28;100.00
45050;BME280;61798;48.048;-1.928;2023-09-19T08:31:36;100734.84;;;15.38;100.00
45050;BME280;61798;48.048;-1.928;2023-09-19T08:33:44;100738.19;;;15.33;100.00
45050;BME280;61798;48.048;-1.928;2023-09-19T08:35:57;100728.69;;;15.30;100.00
45050;BME280;61798;48.048;-1.928;2023-09-19T08:38:04;100737.09;;;15.41;100.00
45050;BME280;61798;48.048;-1.928;2023-09-19T08:40:12;100737.50;;;15.45;100.00
45050;BME280;61798;48.048;-1.928;2023-09-19T08:42:19;100725.25;;;15.42;100.00
45050;BME280;61798;48.048;-1.928;2023-09-19T08:44:28;100729.41;;;15.45;100.00
45050;BME280;61798;48.048;-1.928;2023-09-19T08:46:41;100723.22;;;15.37;100.00
45050;BME280;61798;48.048;-1.928;2023-09-19T08:49:08;100734.72;;;15.51;100.00
45050;BME280;61798;48.048;-1.928;2023-09-19T08:51:41;100713.94;;;15.71;100.00
45050;BME280;61798;48.048;-1.928;2023-09-19T08:54:03;100725.84;;;15.82;100.00
45050;BME280;61798;48.048;-1.928;2023-09-19T08:56:13;100693.53;;;15.56;100.00
45050;BME280;61798;48.048;-1.928;2023-09-19T08:58:27;100720.13;;;15.90;100.00
45050;BME280;61798;48.048;-1.928;2023-09-19T09:00:38;100726.28;;;15.98;100.00
45050;BME280;61798;48.048;-1.928;2023-09-19T09:02:49;100696.66;;;15.91;100.00
45050;BME280;61798;48.048;-1.928;2023-09-19T09:04:58;100720.50;;;15.94;100.00
45050;BME280;61798;48.048;-1.928;2023-09-19T09:07:11;100723.72;;;16.03;100.00
45050;BME280;61798;48.048;-1.928;2023-09-19T09:09:20;100709.53;;;16.07;100.00
45050;BME280;61798;48.048;-1.928;2023-09-19T09:11:27;100702.13;;;16.34;100.00
45050;BME280;61798;48.048;-1.928;2023-09-19T09:13:36;100696.19;;;16.44;100.00
45050;BME280;61798;48.048;-1.928;2023-09-19T09:15:43;100697.38;;;16.48;100.00
45050;BME280;61798;48.048;-1.928;2023-09-19T09:17:52;100715.16;;;16.68;100.00
45050;BME280;61798;48.048;-1.928;2023-09-19T09:20:02;100720.69;;;16.73;100.00
45050;BME280;61798;48.048;-1.928;2023-09-19T09:22:12;100697.97;;;16.62;100.00
45050;BME280;61798;48.048;-1.928;2023-09-19T09:24:32;100708.94;;;16.79;100.00
45050;BME280;61798;48.048;-1.928;2023-09-19T09:26:43;100701.88;;;16.78;100.00
45050;BME280;61798;48.048;-1.928;2023-09-19T09:28:51;100699.75;;;16.80;100.00
45050;BME280;61798;48.048;-1.928;2023-09-19T09:31:28;100714.72;;;16.95;100.00
45050;BME280;61798;48.048;-1.928;2023-09-19T09:33:35;100711.28;;;17.12;100.00
45050;BME280;61798;48.048;-1.928;2023-09-19T09:36:01;100698.25;;;17.21;100.00
45050;BME280;61798;48.048;-1.928;2023-09-19T09:38:10;100681.41;;;17.07;100.00
45050;BME280;61798;48.048;-1.928;2023-09-19T09:40:18;100698.38;;;17.26;100.00
45050;BME280;61798;48.048;-1.928;2023-09-19T09:42:37;100703.94;;;17.31;100.00
45050;BME280;61798;48.048;-1.928;2023-09-19T09:45:21;100706.03;;;17.41;100.00
45050;BME280;61798;48.048;-1.928;2023-09-19T09:47:49;100666.00;;;17.19;100.00
45050;BME280;61798;48.048;-1.928;2023-09-19T09:50:04;100702.97;;;17.38;100.00
45050;BME280;61798;48.048;-1.928;2023-09-19T09:52:13;100702.81;;;17.57;100.00
45050;BME280;61798;48.048;-1.928;2023-09-19T09:54:27;100682.75;;;17.70;100.00
45050;BME280;61798;48.048;-1.928;2023-09-19T09:57:00;100686.03;;;17.72;100.00
45050;BME280;61798;48.048;-1.928;2023-09-19T09:59:06;100703.00;;;17.79;100.00
45050;BME280;61798;48.048;-1.928;2023-09-19T10:01:12;100653.44;;;17.67;100.00
45050;BME280;61798;48.048;-1.928;2023-09-19T10:03:21;100698.69;;;17.95;100.00
45050;BME280;61798;48.048;-1.928;2023-09-19T10:05:28;100691.47;;;18.01;100.00
45050;BME280;61798;48.048;-1.928;2023-09-19T10:07:50;100642.88;;;17.82;100.00
45050;BME280;61798;48.048;-1.928;2023-09-19T10:09:59;100670.19;;;18.22;100.00
45050;BME280;61798;48.048;-1.928;2023-09-19T10:12:12;100675.13;;;18.25;100.00
45050;BME280;61798;48.048;-1.928;2023-09-19T10:14:25;100670.75;;;18.24;100.00
45050;BME280;61798;48.048;-1.928;2023-09-19T10:16:35;100668.91;;;18.42;100.00
45050;BME280;61798;48.048;-1.928;2023-09-19T10:18:45;100650.41;;;18.56;100.00
45050;BME280;61798;48.048;-1.928;2023-09-19T10:20:52;100646.03;;;18.73;100.00
45050;BME280;61798;48.048;-1.928;2023-09-19T10:23:04;100620.97;;;18.48;100.00
45050;BME280;61798;48.048;-1.928;2023-09-19T10:25:15;100648.50;;;18.57;100.00
45050;BME280;61798;48.048;-1.928;2023-09-19T10:27:21;100607.81;;;18.39;100.00
45050;BME280;61798;48.048;-1.928;2023-09-19T10:29:29;100644.13;;;18.90;100.00
45050;BME280;61798;48.048;-1.928;2023-09-19T10:31:38;100617.16;;;18.84;100.00
45050;BME280;61798;48.048;-1.928;2023-09-19T10:33:49;100607.09;;;18.84;100.00
45050;BME280;61798;48.048;-1.928;2023-09-19T10:35:59;100640.69;;;19.18;100.00
45050;BME280;61798;48.048;-1.928;2023-09-19T10:38:07;100647.72;;;19.13;100.00
45050;BME280;61798;48.048;-1.928;2023-09-19T10:40:16;100637.06;;;19.12;100.00
45050;BME280;61798;48.048;-1.928;2023-09-19T10:42:25;100642.78;;;19.10;100.00
45050;BME280;61798;48.048;-1.928;2023-09-19T10:44:38;100639.78;;;19.29;100.00
45050;BME280;61798;48.048;-1.928;2023-09-19T10:46:50;100635.28;;;19.40;100.00
45050;BME280;61798;48.048;-1.928;2023-09-19T10:49:02;100638.59;;;19.42;100.00
45050;BME280;61798;48.048;-1.928;2023-09-19T10:51:16;100646.16;;;19.40;100.00
45050;BME280;61798;48.048;-1.928;2023-09-19T10:53:24;100647.22;;;19.39;100.00
45050;BME280;61798;48.048;-1.928;2023-09-19T10:55:32;100654.50;;;19.56;100.00
45050;BME280;61798;48.048;-1.928;2023-09-19T10:57:44;100633.84;;;19.32;100.00
45050;BME280;61798;48.048;-1.928;2023-09-19T11:00:07;100633.50;;;19.51;100.00
45050;BME280;61798;48.048;-1.928;2023-09-19T11:02:38;100632.03;;;19.38;100.00
45050;BME280;61798;48.048;-1.928;2023-09-19T11:04:46;100619.94;;;19.51;100.00
45050;BME280;61798;48.048;-1.928;2023-09-19T11:07:12;100629.03;;;19.62;100.00
45050;BME280;61798;48.048;-1.928;2023-09-19T11:09:21;100631.41;;;19.59;100.00
45050;BME280;61798;48.048;-1.928;2023-09-19T11:11:49;100614.44;;;19.46;100.00
45050;BME280;61798;48.048;-1.928;2023-09-19T11:16:32;100609.59;;;19.76;100.00
45050;BME280;61798;48.048;-1.928;2023-09-19T11:23:38;100602.66;;;19.91;100.00
45050;BME280;61798;48.048;-1.928;2023-09-19T11:25:50;100620.75;;;20.07;100.00